PWSweather.com
Personal Weather Stations
Station Observations
BALTRELAY
Relay, Baltimore, MD 21227

RelayBaltimore, MD 21227

Lat: 39.24588, Lon: -76.719772

Elevation: 221

Station Type: Davis Vantage Pro2 (6153)

http://www.relayweather.com

Latest ConditionsUpdated 6:50:01 AM GMT Sunday, Jul 23, 2017
Currently Today's Max Today's Min Today's Average
Temperature 72.5°F22.5°C 73.4°F23.0°C 72.5°F22.5°C 72.8°F22.7°C
Dew Point 71.0°F21.7°C 71.2°F21.8°C 70.1°F21.2°C 70.6°F21.4°C
Winds Calm Calm 6.9 mph WSW11.1 kmh WSW - 1.8 mph 2.9 kmh
Wind Gusts -- 11.5 mph18.5 kmh - -
Humidity 95% 95% 90% 93%
Pressure 29.73 in1006.8 mb 29.78 in1008.5 mb 29.73 in1006.8 mb -
Precipitation - 0.01 in0.3 mm - -
Hour Temp Dew Point Humidity Winds Wind Gusts Pressure Precip Precip Rate Daily Precip Total
06:50 AM 72.5°F22.5°C 71.0°F21.7°C 95% Calm Calm -- 29.73 in1006.8 mb - 0.00 in0.0 mm 0.01 in0.3 mm
06:45 AM 72.5°F22.5°C 71.0°F21.7°C 95% Calm Calm -- 29.73 in1006.8 mb - 0.00 in0.0 mm 0.01 in0.3 mm
06:40 AM 72.5°F22.5°C 71.0°F21.7°C 95% Calm Calm -- 29.73 in1006.8 mb - 0.00 in0.0 mm 0.01 in0.3 mm
06:30 AM 72.5°F22.5°C 71.0°F21.7°C 95% Calm Calm -- 29.73 in1006.8 mb - 0.00 in0.0 mm 0.01 in0.3 mm
06:20 AM 72.5°F22.5°C 71.0°F21.7°C 95% Calm Calm -- 29.73 in1006.8 mb - 0.00 in0.0 mm 0.01 in0.3 mm
06:15 AM 72.6°F22.6°C 70.8°F21.6°C 94% Calm Calm -- 29.74 in1007.1 mb - 0.00 in0.0 mm 0.01 in0.3 mm
06:10 AM 72.7°F22.6°C 71.2°F21.8°C 95% Calm Calm 4.6 mph7.4 kmh 29.74 in1007.1 mb - 0.00 in0.0 mm 0.01 in0.3 mm
06:00 AM 72.6°F22.6°C 70.8°F21.6°C 94% 3.5 mph S5.6 kmh S 4.6 mph7.4 kmh 29.74 in1007.1 mb - 0.00 in0.0 mm 0.01 in0.3 mm
05:50 AM 72.6°F22.6°C 70.8°F21.6°C 94% Calm Calm -- 29.73 in1006.8 mb - 0.00 in0.0 mm 0.01 in0.3 mm
05:45 AM 72.5°F22.5°C 70.7°F21.5°C 94% Calm Calm -- 29.73 in1006.8 mb - 0.00 in0.0 mm 0.01 in0.3 mm
05:40 AM 72.6°F22.6°C 70.8°F21.6°C 94% Calm Calm -- 29.73 in1006.8 mb - 0.00 in0.0 mm 0.01 in0.3 mm
05:30 AM 72.7°F22.6°C 70.9°F21.6°C 94% Calm Calm 2.3 mph3.7 kmh 29.75 in1007.5 mb - 0.00 in0.0 mm 0.01 in0.3 mm
05:20 AM 72.7°F22.6°C 70.9°F21.6°C 94% 3.5 mph S5.6 kmh S 4.6 mph7.4 kmh 29.75 in1007.5 mb - 0.00 in0.0 mm 0.01 in0.3 mm
05:15 AM 72.8°F22.7°C 71.0°F21.7°C 94% 1.2 mph S1.9 kmh S 4.6 mph7.4 kmh 29.75 in1007.5 mb - 0.00 in0.0 mm 0.01 in0.3 mm
05:10 AM 72.8°F22.7°C 71.0°F21.7°C 94% 1.2 mph S1.9 kmh S 1.2 mph1.9 kmh 29.76 in1007.8 mb - 0.01 in0.3 mm 0.01 in0.3 mm
05:00 AM 72.7°F22.6°C 70.5°F21.4°C 93% Calm Calm -- 29.77 in1008.1 mb - 0.00 in0.0 mm 0.00 in0.0 mm
04:50 AM 72.8°F22.7°C 70.7°F21.5°C 93% 4.6 mph S7.4 kmh S 6.9 mph11.1 kmh 29.76 in1007.8 mb - 0.00 in0.0 mm 0.00 in0.0 mm
04:45 AM 72.8°F22.7°C 70.6°F21.4°C 93% 1.2 mph SSE1.9 kmh SSE 1.2 mph1.9 kmh 29.76 in1007.8 mb - 0.00 in0.0 mm 0.00 in0.0 mm
04:40 AM 72.7°F22.6°C 70.5°F21.4°C 93% 2.3 mph SSE3.7 kmh SSE 3.5 mph5.6 kmh 29.76 in1007.8 mb - 0.00 in0.0 mm 0.00 in0.0 mm
04:30 AM 72.8°F22.7°C 70.6°F21.4°C 93% Calm Calm -- 29.76 in1007.8 mb - 0.00 in0.0 mm 0.00 in0.0 mm
04:20 AM 72.8°F22.7°C 70.6°F21.4°C 93% Calm Calm -- 29.76 in1007.8 mb - 0.00 in0.0 mm 0.00 in0.0 mm
04:15 AM 72.8°F22.7°C 70.3°F21.3°C 92% Calm Calm -- 29.76 in1007.8 mb - 0.00 in0.0 mm 0.00 in0.0 mm
04:10 AM 72.8°F22.7°C 70.3°F21.3°C 92% Calm Calm -- 29.76 in1007.8 mb - 0.00 in0.0 mm 0.00 in0.0 mm
04:00 AM 72.8°F22.7°C 70.3°F21.3°C 92% Calm Calm -- 29.76 in1007.8 mb - 0.00 in0.0 mm 0.00 in0.0 mm
03:50 AM 72.8°F22.7°C 70.4°F21.3°C 92% Calm Calm -- 29.76 in1007.8 mb - 0.00 in0.0 mm 0.10 in2.5 mm
03:45 AM 72.8°F22.7°C 70.3°F21.3°C 92% 1.2 mph S1.9 kmh S 3.5 mph5.6 kmh 29.76 in1007.8 mb - 0.00 in0.0 mm 0.10 in2.5 mm
03:40 AM 72.8°F22.7°C 70.3°F21.3°C 92% 2.3 mph S3.7 kmh S 4.6 mph7.4 kmh 29.76 in1007.8 mb - 0.00 in0.0 mm 0.10 in2.5 mm
03:30 AM 73.0°F22.8°C 70.2°F21.2°C 91% 4.6 mph SSE7.4 kmh SSE 4.6 mph7.4 kmh 29.76 in1007.8 mb - 0.00 in0.0 mm 0.10 in2.5 mm
03:20 AM 73.1°F22.8°C 70.3°F21.3°C 91% 3.5 mph S5.6 kmh S 5.8 mph9.3 kmh 29.76 in1007.8 mb - 0.00 in0.0 mm 0.10 in2.5 mm
03:15 AM 73.2°F22.9°C 70.1°F21.2°C 90% 4.6 mph SSE7.4 kmh SSE 5.8 mph9.3 kmh 29.76 in1007.8 mb - 0.00 in0.0 mm 0.10 in2.5 mm
03:10 AM 73.4°F23.0°C 70.3°F21.3°C 90% 3.5 mph S5.6 kmh S 4.6 mph7.4 kmh 29.76 in1007.8 mb - 0.00 in0.0 mm 0.10 in2.5 mm
03:00 AM 73.2°F22.9°C 70.1°F21.2°C 90% 3.5 mph W5.6 kmh W 4.6 mph7.4 kmh 29.76 in1007.8 mb - 0.00 in0.0 mm 0.10 in2.5 mm
02:50 AM 73.2°F22.9°C 70.1°F21.2°C 90% 6.9 mph WSW11.1 kmh WSW 10.4 mph16.7 kmh 29.77 in1008.1 mb - 0.00 in0.0 mm 0.10 in2.5 mm
02:45 AM 73.2°F22.9°C 70.4°F21.3°C 91% 5.8 mph W9.3 kmh W 5.8 mph9.3 kmh 29.76 in1007.8 mb - 0.00 in0.0 mm 0.10 in2.5 mm
02:40 AM 73.2°F22.9°C 70.4°F21.3°C 91% 4.6 mph W7.4 kmh W 6.9 mph11.1 kmh 29.76 in1007.8 mb - 0.00 in0.0 mm 0.10 in2.5 mm
02:30 AM 72.9°F22.7°C 70.1°F21.2°C 91% Calm Calm 1.2 mph1.9 kmh 29.76 in1007.8 mb - 0.00 in0.0 mm 0.10 in2.5 mm
02:20 AM 73.2°F22.9°C 70.4°F21.3°C 91% Calm Calm -- 29.76 in1007.8 mb - 0.00 in0.0 mm 0.10 in2.5 mm
02:15 AM 73.1°F22.8°C 70.3°F21.3°C 91% Calm Calm -- 29.75 in1007.5 mb - 0.00 in0.0 mm 0.10 in2.5 mm
02:10 AM 73.0°F22.8°C 70.2°F21.2°C 91% Calm Calm -- 29.75 in1007.5 mb - 0.00 in0.0 mm 0.10 in2.5 mm
02:00 AM 73.0°F22.8°C 70.2°F21.2°C 91% 1.2 mph SW1.9 kmh SW 4.6 mph7.4 kmh 29.76 in1007.8 mb - 0.00 in0.0 mm 0.10 in2.5 mm
01:50 AM 72.9°F22.7°C 70.4°F21.3°C 92% 2.3 mph WSW3.7 kmh WSW 4.6 mph7.4 kmh 29.77 in1008.1 mb - 0.00 in0.0 mm 0.10 in2.5 mm
01:45 AM 72.8°F22.7°C 70.3°F21.3°C 92% 5.8 mph W9.3 kmh W 11.5 mph18.5 kmh 29.77 in1008.1 mb - 0.00 in0.0 mm 0.10 in2.5 mm
01:40 AM 72.9°F22.7°C 70.4°F21.3°C 92% 2.3 mph WSW3.7 kmh WSW 4.6 mph7.4 kmh 29.77 in1008.1 mb - 0.00 in0.0 mm 0.10 in2.5 mm
01:30 AM 72.8°F22.7°C 70.6°F21.4°C 93% 3.5 mph WSW5.6 kmh WSW 4.6 mph7.4 kmh 29.77 in1008.1 mb - 0.00 in0.0 mm 0.10 in2.5 mm
01:20 AM 72.9°F22.7°C 70.7°F21.5°C 93% 2.3 mph SW3.7 kmh SW 4.6 mph7.4 kmh 29.78 in1008.5 mb - 0.00 in0.0 mm 0.10 in2.5 mm
01:15 AM 72.7°F22.6°C 70.6°F21.4°C 93% 2.3 mph S3.7 kmh S 3.5 mph5.6 kmh 29.76 in1007.8 mb - 0.00 in0.0 mm 0.10 in2.5 mm
01:10 AM 72.8°F22.7°C 70.7°F21.5°C 93% Calm Calm 4.6 mph7.4 kmh 29.76 in1007.8 mb - 0.00 in0.0 mm 0.10 in2.5 mm
01:00 AM 72.8°F22.7°C 70.6°F21.4°C 93% Calm Calm -- 29.76 in1007.8 mb - 0.00 in0.0 mm 0.10 in2.5 mm
12:50 AM 73.0°F22.8°C 70.5°F21.4°C 92% 2.3 mph SW3.7 kmh SW 4.6 mph7.4 kmh 29.76 in1007.8 mb - 0.00 in0.0 mm 0.10 in2.5 mm
12:45 AM 73.2°F22.9°C 71.0°F21.7°C 93% 1.2 mph WSW1.9 kmh WSW 4.6 mph7.4 kmh 29.76 in1007.8 mb - 0.00 in0.0 mm 0.10 in2.5 mm
12:40 AM 73.0°F22.8°C 70.8°F21.6°C 93% 3.5 mph SW5.6 kmh SW 4.6 mph7.4 kmh 29.76 in1007.8 mb - 0.00 in0.0 mm 0.10 in2.5 mm
12:30 AM 72.7°F22.6°C 70.5°F21.4°C 93% 1.2 mph SSW1.9 kmh SSW 2.3 mph3.7 kmh 29.75 in1007.5 mb - 0.00 in0.0 mm 0.10 in2.5 mm
12:20 AM 72.8°F22.7°C 70.7°F21.5°C 93% 3.5 mph S5.6 kmh S 4.6 mph7.4 kmh 29.75 in1007.5 mb - 0.00 in0.0 mm 0.10 in2.5 mm
12:15 AM 72.7°F22.6°C 70.5°F21.4°C 93% 3.5 mph S5.6 kmh S 5.8 mph9.3 kmh 29.75 in1007.5 mb - 0.00 in0.0 mm 0.10 in2.5 mm
12:10 AM 72.8°F22.7°C 70.6°F21.4°C 93% 2.3 mph SSW3.7 kmh SSW 4.6 mph7.4 kmh 29.75 in1007.5 mb - 0.00 in0.0 mm 0.10 in2.5 mm
12:00 AM 72.9°F22.7°C 70.7°F21.5°C 93% 3.5 mph SW5.6 kmh SW 4.6 mph7.4 kmh 29.75 in1007.5 mb - 0.00 in0.0 mm 0.10 in2.5 mm